createdAt,value
2023-03-22T00:04:15.876Z,97.74
2023-03-22T00:09:15.813Z,97.85
2023-03-22T00:14:15.729Z,98.25
2023-03-22T00:19:15.660Z,98.25
2023-03-22T00:24:15.602Z,98.36
2023-03-22T00:29:15.530Z,98.40
2023-03-22T00:34:15.460Z,98.61
2023-03-22T00:39:15.401Z,98.81
2023-03-22T00:44:15.334Z,99.02
2023-03-22T00:49:15.263Z,99.37
2023-03-22T00:54:15.194Z,99.57
2023-03-22T00:59:15.135Z,99.47
2023-03-22T01:04:15.070Z,99.52
2023-03-22T01:09:15.212Z,99.99
2023-03-22T01:14:14.941Z,99.99
2023-03-22T01:19:14.860Z,99.99
2023-03-22T01:24:14.789Z,99.99
2023-03-22T01:29:14.710Z,99.99
2023-03-22T01:34:14.658Z,99.99
2023-03-22T01:39:14.590Z,99.99
2023-03-22T01:44:14.537Z,99.99
2023-03-22T01:49:14.459Z,99.99
2023-03-22T01:54:14.392Z,99.99
2023-03-22T01:59:14.312Z,99.99
2023-03-22T02:04:14.254Z,99.99
2023-03-22T02:09:14.203Z,99.99
2023-03-22T02:14:14.121Z,99.99
2023-03-22T02:19:14.064Z,99.99
2023-03-22T02:24:13.991Z,99.99
2023-03-22T02:29:13.928Z,99.99
2023-03-22T02:34:13.875Z,99.99
2023-03-22T02:39:13.790Z,99.99
2023-03-22T02:44:13.750Z,99.99
2023-03-22T02:49:13.668Z,99.99
2023-03-22T02:54:13.610Z,99.99
2023-03-22T02:59:13.540Z,99.99
2023-03-22T03:04:13.470Z,99.99
2023-03-22T03:09:13.389Z,99.99
2023-03-22T03:14:13.338Z,99.99
2023-03-22T03:19:13.268Z,99.99
2023-03-22T03:24:13.200Z,99.99
2023-03-22T03:29:13.120Z,99.99
2023-03-22T03:34:13.092Z,99.99
2023-03-22T03:39:12.992Z,99.99
2023-03-22T03:44:12.940Z,99.99
2023-03-22T03:49:12.858Z,99.99
2023-03-22T03:54:12.797Z,99.99
2023-03-22T03:59:12.732Z,99.99
2023-03-22T04:04:12.689Z,99.99
2023-03-22T04:09:12.589Z,99.99
2023-03-22T04:14:12.532Z,99.99
2023-03-22T04:19:12.463Z,99.99
2023-03-22T04:24:12.440Z,99.99
2023-03-22T04:29:12.327Z,99.99
2023-03-22T04:34:12.258Z,99.99
2023-03-22T04:39:12.201Z,99.99
2023-03-22T04:44:12.127Z,99.99
2023-03-22T04:49:12.056Z,99.99
2023-03-22T04:54:11.996Z,99.99
2023-03-22T04:59:11.935Z,99.99
2023-03-22T05:04:11.872Z,99.99
2023-03-22T05:09:11.786Z,99.99
2023-03-22T05:14:11.779Z,99.99
2023-03-22T05:19:11.664Z,99.99
2023-03-22T05:24:11.603Z,99.99
2023-03-22T05:29:11.528Z,99.99
2023-03-22T05:34:11.473Z,99.62
2023-03-22T05:39:11.400Z,99.67
2023-03-22T05:44:11.356Z,97.69
2023-03-22T05:49:12.266Z,94.78
2023-03-22T05:54:11.213Z,92.43
2023-03-22T05:59:11.154Z,92.55
2023-03-22T06:04:11.072Z,89.80
2023-03-22T06:09:17.315Z,87.65
2023-03-22T06:14:11.941Z,87.65
2023-03-22T06:19:10.869Z,88.06
2023-03-22T06:24:10.795Z,89.18
2023-03-22T06:29:10.730Z,88.37
2023-03-22T06:34:10.661Z,88.02
2023-03-22T06:39:10.595Z,87.16
2023-03-22T06:44:10.513Z,85.14
2023-03-22T06:49:10.449Z,83.37
2023-03-22T06:54:10.381Z,82.92
2023-03-22T06:59:10.311Z,83.29
2023-03-22T07:04:10.289Z,82.23
2023-03-22T07:09:10.175Z,79.14
2023-03-22T07:14:10.104Z,79.14
2023-03-22T07:19:10.044Z,77.37
2023-03-22T07:24:09.973Z,77.33
2023-03-22T07:29:09.910Z,78.76
2023-03-22T07:34:09.845Z,76.41
2023-03-22T07:39:09.758Z,73.63
2023-03-22T07:44:17.676Z,74.27
2023-03-22T07:49:10.874Z,71.16
2023-03-22T07:54:09.814Z,68.17
2023-03-22T07:59:09.523Z,64.51
2023-03-22T08:04:09.451Z,61.70
2023-03-22T08:09:09.386Z,59.59
2023-03-22T08:14:09.303Z,59.89
2023-03-22T08:19:09.240Z,59.48
2023-03-22T08:24:09.168Z,60.05
2023-03-22T08:29:09.099Z,61.98
2023-03-22T08:34:09.041Z,58.89
2023-03-22T08:39:08.971Z,57.86
2023-03-22T08:44:08.925Z,57.32
2023-03-22T08:49:08.844Z,58.78
2023-03-22T08:54:08.796Z,56.01
2023-03-22T08:59:08.702Z,55.51
2023-03-22T09:04:10.656Z,55.23
2023-03-22T09:09:08.562Z,56.29
2023-03-22T09:14:08.515Z,56.77
2023-03-22T09:19:08.430Z,56.14
2023-03-22T09:24:08.372Z,54.50
2023-03-22T09:29:08.298Z,53.67
2023-03-22T09:34:08.231Z,52.62
2023-03-22T09:39:08.162Z,52.37
2023-03-22T09:44:08.100Z,51.37
2023-03-22T09:49:08.036Z,50.68
2023-03-22T09:54:07.955Z,51.54
2023-03-22T09:59:07.884Z,49.93
2023-03-22T10:04:07.864Z,50.63
2023-03-22T10:09:07.755Z,51.46
2023-03-22T10:14:07.702Z,51.81
2023-03-22T10:19:07.617Z,53.92
2023-03-22T10:24:07.558Z,53.40
2023-03-22T10:29:07.491Z,51.18
2023-03-22T10:34:07.441Z,52.11
2023-03-22T10:39:07.363Z,52.29
2023-03-22T10:44:07.289Z,51.84
2023-03-22T10:49:07.235Z,51.26
2023-03-22T10:54:07.164Z,50.68
2023-03-22T10:59:07.101Z,49.93
2023-03-22T11:04:07.038Z,50.33
2023-03-22T11:09:06.957Z,51.44
2023-03-22T11:14:06.912Z,50.13
2023-03-22T11:19:06.831Z,51.06
2023-03-22T11:24:06.773Z,51.74
2023-03-22T11:29:06.698Z,52.26
2023-03-22T11:34:06.628Z,51.34
2023-03-22T11:39:06.560Z,50.63
2023-03-22T11:44:06.491Z,50.11
2023-03-22T11:49:06.463Z,50.01
2023-03-22T11:54:06.373Z,49.21
2023-03-22T11:59:06.283Z,48.50
2023-03-22T12:04:06.270Z,48.63
2023-03-22T12:09:06.159Z,49.53
2023-03-22T12:14:06.097Z,50.61
2023-03-22T12:19:06.013Z,49.36
2023-03-22T12:24:05.946Z,49.05
2023-03-22T12:29:05.884Z,49.04
2023-03-22T12:34:05.853Z,49.23
2023-03-22T12:39:05.748Z,48.03
2023-03-22T12:44:05.689Z,49.16
2023-03-22T12:49:05.657Z,49.98
2023-03-22T12:54:05.565Z,49.38
2023-03-22T12:59:05.506Z,49.05
2023-03-22T13:04:05.586Z,47.15
2023-03-22T13:09:05.344Z,46.83
2023-03-22T13:14:05.283Z,47.55
2023-03-22T13:19:05.204Z,48.43
2023-03-22T13:24:05.180Z,46.25
2023-03-22T13:29:05.075Z,46.45
2023-03-22T13:34:05.012Z,47.05
2023-03-22T13:39:04.947Z,45.42
2023-03-22T13:44:06.934Z,45.54
2023-03-22T13:49:04.925Z,46.17
2023-03-22T13:54:04.743Z,47.67
2023-03-22T13:59:04.668Z,47.00
2023-03-22T14:04:04.612Z,46.77
2023-03-22T14:09:04.543Z,47.09
2023-03-22T14:14:04.481Z,48.30
2023-03-22T14:19:04.412Z,47.00
